createdAt,value
2017-08-14T00:00:06.938Z,66.94
2017-08-14T00:01:16.991Z,66.75
2017-08-14T00:02:27.416Z,66.94
2017-08-14T00:03:37.129Z,67
2017-08-14T00:04:47.159Z,66.75
2017-08-14T00:05:57.506Z,66.82
2017-08-14T00:07:07.853Z,66.66
2017-08-14T00:08:18.269Z,66.52
2017-08-14T00:09:28.332Z,66.62
2017-08-14T00:10:38.690Z,67
2017-08-14T00:11:48.710Z,67
2017-08-14T00:12:58.748Z,67
2017-08-14T00:14:08.836Z,67.2
2017-08-14T00:15:18.883Z,67
2017-08-14T00:16:28.932Z,66.91
2017-08-14T00:17:39.279Z,66.72
2017-08-14T00:18:49.309Z,66.72
2017-08-14T00:19:59.406Z,67
2017-08-14T00:21:09.773Z,67.4
2017-08-14T00:22:20.120Z,67.4
2017-08-14T00:23:30.157Z,67.4
2017-08-14T00:24:40.196Z,67
2017-08-14T00:25:50.282Z,67.2
2017-08-14T00:27:00.649Z,66.72
2017-08-14T00:28:11.006Z,67
2017-08-14T00:29:21.373Z,66.62
2017-08-14T00:30:31.723Z,66.52
2017-08-14T00:31:41.817Z,67.2
2017-08-14T00:32:52.172Z,67
2017-08-14T00:34:02.514Z,66.72
2017-08-14T00:35:12.247Z,66.72
2017-08-14T00:36:22.280Z,66.91
2017-08-14T00:37:32.685Z,66.91
2017-08-14T00:38:43.057Z,67
2017-08-14T00:39:53.405Z,66.91
2017-08-14T00:41:03.759Z,67
2017-08-14T00:42:14.097Z,67.1
2017-08-14T00:43:24.190Z,67.4
2017-08-14T00:44:34.549Z,67.2
2017-08-14T00:45:44.582Z,66.82
2017-08-14T00:46:54.920Z,66.82
2017-08-14T00:48:05.270Z,66.72
2017-08-14T00:49:15.657Z,66.72
2017-08-14T00:50:26.011Z,66.91
2017-08-14T00:51:36.347Z,66.62
2017-08-14T00:52:46.710Z,66.75
2017-08-14T00:53:58.909Z,66.66
2017-08-14T00:55:09.304Z,67.04
2017-08-14T00:56:19.337Z,66.36
2017-08-14T00:57:29.378Z,66.17
2017-08-14T00:58:39.730Z,66.17
2017-08-14T00:59:50.083Z,66.17
2017-08-14T01:01:00.474Z,66.36
2017-08-14T01:02:10.850Z,66.94
2017-08-14T01:03:20.890Z,66.85
2017-08-14T01:04:31.236Z,67.04
2017-08-14T01:05:41.286Z,66.66
2017-08-14T01:06:51.684Z,66.66
2017-08-14T01:08:02.022Z,67.14
2017-08-14T01:09:12.365Z,66.85
2017-08-14T01:10:22.743Z,66.75
2017-08-14T01:11:32.768Z,67.23
2017-08-14T01:12:43.162Z,66.85
2017-08-14T01:13:53.188Z,67.23
2017-08-14T01:15:02.928Z,67.04
2017-08-14T01:16:13.272Z,67.04
2017-08-14T01:17:23.622Z,67.04
2017-08-14T01:18:34.032Z,67.23
2017-08-14T01:19:44.377Z,66.94
2017-08-14T01:20:54.739Z,67.33
2017-08-14T01:22:05.105Z,67.23
2017-08-14T01:23:15.157Z,67.33
2017-08-14T01:24:25.550Z,67.33
2017-08-14T01:25:35.887Z,67.04
2017-08-14T01:26:46.229Z,67
2017-08-14T01:27:56.566Z,67.58
2017-08-14T01:29:06.922Z,66.94
2017-08-14T01:30:17.013Z,66.91
2017-08-14T01:31:27.352Z,67.2
2017-08-14T01:32:37.707Z,66.94
2017-08-14T01:33:47.743Z,66.94
2017-08-14T01:34:58.073Z,67.2
2017-08-14T01:36:08.472Z,67.2
2017-08-14T01:37:18.829Z,66.82
2017-08-14T01:38:29.172Z,66.66
2017-08-14T01:39:39.516Z,66.62
2017-08-14T01:40:49.859Z,66.62
2017-08-14T01:41:59.935Z,66.62
2017-08-14T01:43:10.277Z,66.91
2017-08-14T01:44:20.634Z,67
2017-08-14T01:45:30.374Z,67
2017-08-14T01:46:40.739Z,67
2017-08-14T01:47:50.509Z,67.1
2017-08-14T01:49:00.848Z,67
2017-08-14T01:50:11.193Z,67
2017-08-14T01:51:21.230Z,67
2017-08-14T01:52:31.282Z,66.91
2017-08-14T01:53:40.740Z,67.3
2017-08-14T01:54:50.470Z,66.72
2017-08-14T01:56:00.812Z,67.1
2017-08-14T01:57:10.850Z,66.91
2017-08-14T01:58:20.889Z,67.4
2017-08-14T01:59:31.270Z,67
2017-08-14T02:00:41.614Z,67.2
2017-08-14T02:01:51.973Z,67
2017-08-14T02:03:02.025Z,66.82
2017-08-14T02:04:11.755Z,66.91
2017-08-14T02:05:22.181Z,67
2017-08-14T02:06:32.228Z,66.91
2017-08-14T02:07:42.290Z,67
2017-08-14T02:08:52.015Z,66.72
2017-08-14T02:10:02.065Z,67.2
2017-08-14T02:11:11.846Z,67.14
2017-08-14T02:12:22.188Z,66.85
2017-08-14T02:13:33.964Z,66.85
2017-08-14T02:14:43.999Z,66.85
2017-08-14T02:15:54.359Z,66.75
2017-08-14T02:17:04.768Z,67.04
2017-08-14T02:18:15.105Z,66.75
2017-08-14T02:19:25.454Z,67.04
2017-08-14T02:20:35.803Z,66.75
2017-08-14T02:21:46.143Z,67.14
2017-08-14T02:22:56.533Z,66.85
2017-08-14T02:24:06.265Z,67.04
2017-08-14T02:25:16.639Z,67.04
2017-08-14T02:26:26.975Z,66.94
2017-08-14T02:27:37.344Z,67.23
2017-08-14T02:28:47.444Z,67.33
2017-08-14T02:29:57.814Z,66.66
2017-08-14T02:31:08.417Z,67.58
2017-08-14T02:32:18.143Z,66.72
2017-08-14T02:33:28.513Z,67.58
2017-08-14T02:34:38.916Z,67
2017-08-14T02:35:48.952Z,67.58
2017-08-14T02:36:59.309Z,67
2017-08-14T02:38:09.346Z,67
2017-08-14T02:39:19.388Z,67
2017-08-14T02:40:29.779Z,67
2017-08-14T02:41:40.137Z,66.97
2017-08-14T02:42:49.535Z,67
2017-08-14T02:43:59.581Z,66.62
2017-08-14T02:45:09.946Z,67.2
2017-08-14T02:46:20.349Z,66.69
2017-08-14T02:47:30.396Z,66.91
2017-08-14T02:48:40.464Z,67.16
2017-08-14T02:49:50.499Z,67.36
2017-08-14T02:51:00.523Z,66.88
2017-08-14T02:52:10.931Z,67.16
2017-08-14T02:53:21.282Z,67.55
2017-08-14T02:54:31.623Z,66.69
2017-08-14T02:55:41.660Z,66.78
2017-08-14T02:56:51.699Z,66.88
2017-08-14T02:58:02.102Z,67.46
2017-08-14T02:59:12.444Z,66.78
2017-08-14T03:00:22.797Z,67.16
2017-08-14T03:01:33.141Z,67.07
2017-08-14T03:33:11.724Z,64.69
2017-08-14T03:34:21.987Z,65.08
2017-08-14T03:35:31.711Z,65.75
2017-08-14T03:36:41.415Z,66.33
2017-08-14T03:37:51.465Z,66.61
2017-08-14T03:39:01.858Z,67.19
2017-08-14T03:40:12.191Z,67.47
2017-08-14T03:41:22.531Z,67.38
2017-08-14T03:42:32.881Z,67.7
2017-08-14T03:43:42.915Z,67.61
2017-08-14T03:44:53.288Z,67.32
2017-08-14T03:46:03.311Z,67.74
2017-08-14T03:47:13.642Z,67.64
2017-08-14T03:48:23.976Z,67.64
2017-08-14T03:49:34.002Z,67.48
2017-08-14T03:50:44.424Z,67.38
2017-08-14T03:51:54.774Z,67.29
2017-08-14T03:53:04.812Z,67.29
2017-08-14T03:54:14.856Z,67.51
2017-08-14T03:55:25.196Z,67.61
2017-08-14T03:56:35.284Z,66.94
2017-08-14T03:57:45.632Z,67.03
2017-08-14T03:58:55.966Z,67.32
2017-08-14T04:00:06.308Z,66.74
2017-08-14T04:01:16.650Z,66.74
2017-08-14T04:02:26.723Z,67.26
2017-08-14T04:03:37.073Z,66.74
2017-08-14T04:04:47.420Z,66.68
2017-08-14T04:05:57.489Z,67.16
2017-08-14T04:07:07.207Z,67.55
2017-08-14T04:08:16.981Z,66.78
2017-08-14T04:09:27.013Z,67.16
2017-08-14T04:10:37.356Z,67.07
2017-08-14T04:11:47.726Z,66.97
2017-08-14T04:12:58.083Z,66.88
2017-08-14T04:14:08.157Z,66.62
2017-08-14T04:15:18.513Z,66.71
2017-08-14T04:16:28.561Z,66.81
2017-08-14T04:17:38.606Z,67
2017-08-14T04:18:48.959Z,66.81
2017-08-14T04:19:59.354Z,66.71
2017-08-14T04:21:09.701Z,66.91
2017-08-14T04:22:20.059Z,66.81
2017-08-14T04:23:30.076Z,66.52
2017-08-14T04:24:40.104Z,66.62
2017-08-14T04:25:50.499Z,66.75
2017-08-14T04:27:00.217Z,66.85
2017-08-14T04:28:10.242Z,65.88
2017-08-14T04:29:20.592Z,65.33
2017-08-14T04:30:30.642Z,66.11
2017-08-14T04:31:40.734Z,65.91
2017-08-14T04:32:51.090Z,65.81
2017-08-14T04:34:01.426Z,65.81
2017-08-14T04:35:11.794Z,65.81
2017-08-14T04:36:22.140Z,65.91
2017-08-14T04:37:32.541Z,66.78
2017-08-14T04:38:42.910Z,66.69
2017-08-14T04:39:53.267Z,66.01
2017-08-14T04:41:03.295Z,66.14
2017-08-14T04:42:13.636Z,66.82
2017-08-14T04:43:24.040Z,67.1
2017-08-14T04:44:34.091Z,67.1
2017-08-14T04:45:44.457Z,67.1
2017-08-14T04:46:54.476Z,67.3
2017-08-14T04:48:04.502Z,67
2017-08-14T04:49:14.279Z,67
2017-08-14T04:50:24.608Z,67.2
2017-08-14T04:51:34.953Z,66.66
2017-08-14T04:52:45.301Z,65.59
2017-08-14T04:53:55.656Z,63.43
2017-08-14T04:55:06.065Z,61.3
2017-08-14T04:56:16.408Z,60.52
2017-08-14T04:57:26.744Z,60.68
2017-08-14T04:58:37.630Z,60.13
2017-08-14T04:59:47.985Z,60.16
2017-08-14T05:00:58.081Z,60.19
2017-08-14T05:02:08.414Z,60.12
2017-08-14T05:03:17.838Z,60.15
2017-08-14T05:04:28.197Z,60.64
2017-08-14T05:05:38.539Z,60.57
2017-08-14T05:06:48.311Z,60.21
2017-08-14T05:07:58.666Z,61.18
2017-08-14T05:09:09.022Z,60.89
2017-08-14T05:10:19.368Z,61.02
2017-08-14T05:11:29.706Z,61.15
2017-08-14T05:12:39.793Z,61.24
2017-08-14T05:13:49.525Z,61.05
2017-08-14T05:14:59.900Z,61.44
2017-08-14T05:16:09.941Z,61.27
2017-08-14T05:17:19.991Z,61.66
2017-08-14T05:18:30.086Z,61.57
2017-08-14T05:19:40.106Z,61.79
2017-08-14T05:20:50.459Z,61.6
2017-08-14T05:22:00.483Z,61.69
2017-08-14T05:23:10.844Z,61.99
2017-08-14T05:24:21.236Z,61.99
2017-08-14T05:25:31.584Z,62.08
2017-08-14T05:26:41.635Z,61.63
2017-08-14T05:27:51.987Z,62.21
2017-08-14T05:29:02.345Z,62.79
2017-08-14T05:30:12.756Z,62.47
2017-08-14T05:31:22.800Z,62.38
2017-08-14T05:32:32.824Z,63.09
2017-08-14T05:33:42.886Z,62.96
2017-08-14T05:34:53.240Z,63.45
2017-08-14T05:36:03.638Z,63.12
2017-08-14T05:37:13.678Z,62.93
2017-08-14T05:38:23.714Z,63.51
2017-08-14T05:39:34.061Z,63.42
2017-08-14T05:40:44.414Z,63.87
2017-08-14T05:41:54.519Z,63.9
2017-08-14T05:43:04.568Z,63.78
2017-08-14T05:44:14.608Z,63.29
2017-08-14T05:45:24.327Z,62.99
2017-08-14T05:46:34.674Z,63.12
2017-08-14T05:47:45.067Z,63.22
2017-08-14T05:48:55.441Z,63.02
2017-08-14T05:50:05.791Z,63.29
2017-08-14T05:51:16.153Z,63.12
2017-08-14T05:52:26.523Z,63.29
2017-08-14T05:53:36.928Z,63.58
2017-08-14T05:54:46.955Z,63.39
2017-08-14T05:55:57.292Z,63.48
2017-08-14T05:57:07.635Z,64.36
2017-08-14T05:58:17.989Z,65.2
2017-08-14T05:59:28.076Z,66.56
2017-08-14T06:00:38.433Z,67.21
2017-08-14T06:01:48.784Z,67.24
2017-08-14T06:02:58.823Z,67.54
2017-08-14T06:04:09.176Z,67.69
2017-08-14T06:05:19.574Z,66.89
2017-08-14T06:06:30.169Z,67.47
2017-08-14T06:07:40.194Z,67.14
2017-08-14T06:08:50.553Z,67.34
2017-08-14T06:10:00.602Z,66.47
2017-08-14T06:11:10.681Z,66.95
2017-08-14T06:12:20.723Z,66.53
2017-08-14T06:13:31.091Z,66.53
2017-08-14T06:14:41.440Z,66.24
2017-08-14T06:15:51.480Z,65.95
2017-08-14T06:17:01.581Z,66.34
2017-08-14T06:18:11.920Z,66.34
2017-08-14T06:19:21.959Z,66.05
2017-08-14T06:20:32.293Z,65.85
2017-08-14T06:21:42.639Z,65.66
2017-08-14T06:22:53.021Z,65.75
2017-08-14T06:24:03.381Z,65.72
2017-08-14T06:25:13.738Z,66.3
2017-08-14T06:26:23.775Z,65.72
2017-08-14T06:27:34.135Z,65.82
2017-08-14T06:28:45.867Z,65.92
2017-08-14T06:29:56.208Z,65.92
2017-08-14T06:31:05.615Z,65.63
2017-08-14T06:32:15.954Z,65.34
2017-08-14T06:33:25.684Z,65.14
2017-08-14T06:34:36.078Z,65.05
2017-08-14T06:35:46.451Z,65.14
2017-08-14T06:36:56.793Z,65.24
2017-08-14T06:38:07.128Z,65.24
2017-08-14T06:39:17.467Z,65.14
2017-08-14T06:40:27.876Z,65.34
2017-08-14T06:41:38.223Z,65.14
2017-08-14T06:42:48.581Z,65.14
2017-08-14T06:43:58.626Z,65.43
2017-08-14T06:45:08.988Z,65.14
2017-08-14T06:46:19.394Z,65.14
2017-08-14T06:47:29.432Z,65.05
2017-08-14T06:48:39.778Z,65.17
2017-08-14T06:49:50.142Z,65.08
2017-08-14T06:51:00.195Z,65.27
2017-08-14T06:52:10.286Z,65.08
2017-08-14T06:53:20.662Z,65.17
2017-08-14T06:54:31.027Z,64.79
2017-08-14T06:55:41.059Z,65.27
2017-08-14T06:56:51.088Z,64.89
2017-08-14T06:58:01.172Z,65.27
2017-08-14T06:59:10.580Z,65.08
2017-08-14T07:00:20.602Z,65.08
2017-08-14T07:01:30.973Z,64.89
2017-08-14T07:02:41.310Z,64.92
2017-08-14T07:03:51.693Z,65.4
2017-08-14T07:05:02.050Z,64.92
2017-08-14T07:06:12.409Z,64.92
2017-08-14T07:07:22.745Z,65.11
2017-08-14T07:08:32.781Z,65.01
2017-08-14T07:09:43.178Z,64.92
2017-08-14T07:10:53.552Z,64.92
2017-08-14T07:12:03.899Z,65.3
2017-08-14T07:13:13.917Z,65.43
2017-08-14T07:14:24.279Z,65.53
2017-08-14T07:15:34.701Z,65.14
2017-08-14T07:16:45.066Z,65.14
2017-08-14T07:17:55.418Z,65.24
2017-08-14T07:19:05.768Z,65.24
2017-08-14T07:20:15.813Z,65.24
2017-08-14T07:21:25.908Z,65.34
2017-08-14T07:22:36.270Z,65.37
2017-08-14T07:23:46.636Z,65.34
2017-08-14T07:24:56.676Z,65.37
2017-08-14T07:26:06.712Z,65.37
2017-08-14T07:27:16.806Z,65.37
2017-08-14T07:28:27.155Z,65.08
2017-08-14T07:29:37.519Z,65.17
2017-08-14T07:30:47.552Z,64.72
2017-08-14T07:31:57.909Z,64.92
2017-08-14T07:33:08.317Z,65.2
2017-08-14T07:34:18.367Z,64.92
2017-08-14T07:35:29.689Z,64.92
2017-08-14T07:36:40.050Z,64.62
2017-08-14T07:37:50.090Z,64.65
2017-08-14T07:39:00.738Z,64.92
2017-08-14T07:40:11.095Z,64.65
2017-08-14T07:41:21.446Z,64.65
2017-08-14T07:42:31.796Z,64.65
2017-08-14T07:43:41.834Z,64.95
2017-08-14T07:44:52.239Z,64.95
2017-08-14T07:46:02.581Z,65.14
2017-08-14T07:47:12.927Z,64.95
2017-08-14T07:48:22.969Z,64.85
2017-08-14T07:49:33.339Z,64.95
2017-08-14T07:50:43.443Z,65.08
2017-08-14T07:51:53.814Z,65.27
2017-08-14T07:53:04.163Z,64.98
2017-08-14T07:54:14.494Z,65.08
2017-08-14T07:55:24.831Z,64.98
2017-08-14T07:56:34.624Z,64.69
2017-08-14T07:57:46.150Z,64.88
2017-08-14T07:58:56.520Z,64.98
2017-08-14T08:00:06.589Z,64.78
2017-08-14T08:01:16.944Z,64.98
2017-08-14T08:02:27.020Z,65.11
2017-08-14T08:03:37.376Z,65.11
2017-08-14T08:04:47.123Z,64.81
2017-08-14T08:05:57.489Z,65.01
2017-08-14T08:07:07.533Z,65.01
2017-08-14T08:08:19.299Z,65.01
2017-08-14T08:09:29.674Z,65.01
2017-08-14T08:10:40.049Z,65.01
2017-08-14T08:11:50.391Z,64.91
2017-08-14T08:13:00.430Z,64.91
2017-08-14T08:14:10.862Z,64.91
2017-08-14T08:15:21.223Z,65.14
2017-08-14T08:16:31.580Z,65.04
2017-08-14T08:17:41.922Z,65.04
2017-08-14T08:18:51.960Z,65.01
2017-08-14T08:20:02.077Z,65.14
2017-08-14T08:21:12.440Z,65.04
2017-08-14T08:22:22.796Z,65.04
2017-08-14T08:23:33.145Z,65.04
2017-08-14T08:24:43.495Z,65.04
2017-08-14T08:25:56.415Z,65.14
2017-08-14T08:27:06.773Z,65.04
2017-08-14T08:28:17.121Z,65.04
2017-08-14T08:29:27.473Z,64.95
2017-08-14T08:30:37.834Z,65.04
2017-08-14T08:31:49.759Z,65.04
2017-08-14T08:33:00.122Z,64.88
2017-08-14T08:34:10.502Z,64.98
2017-08-14T08:35:20.575Z,64.69
2017-08-14T08:36:30.920Z,64.88
2017-08-14T08:37:41.382Z,65.17
2017-08-14T08:38:51.750Z,65.08
2017-08-14T08:40:02.112Z,65.08
2017-08-14T08:41:13.364Z,65.08
2017-08-14T08:42:23.738Z,65.17
2017-08-14T08:43:34.369Z,64.81
2017-08-14T08:44:44.403Z,64.72
2017-08-14T08:45:54.797Z,65.2
2017-08-14T08:47:05.367Z,64.91
2017-08-14T08:48:15.855Z,65.2
2017-08-14T08:49:26.275Z,64.52
2017-08-14T08:50:36.313Z,65.2
2017-08-14T08:51:46.692Z,64.72
2017-08-14T08:52:56.767Z,64.62
2017-08-14T08:54:07.156Z,64.94
2017-08-14T08:55:17.626Z,65.11
2017-08-14T08:56:28.007Z,65.23
2017-08-14T08:57:38.382Z,65.11
2017-08-14T08:58:48.442Z,65.04
2017-08-14T08:59:58.868Z,65.14
2017-08-14T09:01:09.358Z,65.23
2017-08-14T09:02:20.004Z,64.94
2017-08-14T09:03:30.648Z,65.23
2017-08-14T09:04:40.428Z,65.14
2017-08-14T09:05:50.583Z,65.14
2017-08-14T09:07:01.029Z,65.14
2017-08-14T09:08:11.121Z,65.23
2017-08-14T09:09:21.497Z,65.14
2017-08-14T09:10:31.568Z,65.23
2017-08-14T09:11:41.949Z,65.14
2017-08-14T09:12:52.394Z,65.14
2017-08-14T09:14:02.468Z,65.23
2017-08-14T09:15:13.071Z,64.94
2017-08-14T09:16:23.493Z,64.97
2017-08-14T09:17:33.892Z,64.78
2017-08-14T09:18:44.023Z,64.59
2017-08-14T09:19:54.082Z,64.59
2017-08-14T09:21:04.481Z,64.87
2017-08-14T09:22:15.116Z,64.87
2017-08-14T09:23:25.493Z,64.87
2017-08-14T09:24:35.924Z,64.87
2017-08-14T09:25:45.995Z,64.91
2017-08-14T09:26:56.394Z,64.32
2017-08-14T09:28:06.787Z,64.91
2017-08-14T09:29:17.167Z,64.91
2017-08-14T09:30:27.602Z,65.01
2017-08-14T09:31:38.022Z,64.13
2017-08-14T09:32:48.391Z,64.72
2017-08-14T09:33:58.784Z,64.42
2017-08-14T09:35:09.141Z,64.94
2017-08-14T09:36:19.257Z,64.32
2017-08-14T09:37:29.639Z,64.52
2017-08-14T09:38:40.006Z,64.91
2017-08-14T09:39:50.392Z,64.91
2017-08-14T09:41:00.761Z,64.55
2017-08-14T09:42:10.914Z,64.45
2017-08-14T09:43:21.300Z,64.36
2017-08-14T09:44:31.675Z,64.39
2017-08-14T09:45:42.060Z,64.58
2017-08-14T09:46:52.441Z,64.39
2017-08-14T09:48:02.856Z,64.39
2017-08-14T09:49:13.241Z,64.39
2017-08-14T09:50:23.607Z,64.29
2017-08-14T09:51:33.975Z,64.48
2017-08-14T09:52:44.345Z,64.51
2017-08-14T09:53:54.770Z,64.42
2017-08-14T09:55:05.161Z,64.12
2017-08-14T09:56:15.558Z,64.16
2017-08-14T09:57:25.932Z,63.48
2017-08-14T09:58:35.998Z,63.96
2017-08-14T09:59:46.450Z,63.6
2017-08-14T10:00:56.832Z,63.21
2017-08-14T10:02:07.213Z,63.24
2017-08-14T10:03:16.943Z,63.64
2017-08-14T10:04:27.306Z,63.05
2017-08-14T10:05:37.096Z,63.18
2017-08-14T10:06:47.446Z,62.98
2017-08-14T10:07:57.512Z,62.72
2017-08-14T10:09:07.580Z,62.52
2017-08-14T10:10:17.641Z,62.75
2017-08-14T10:11:27.758Z,62.75
2017-08-14T10:12:38.152Z,63.24
2017-08-14T10:13:48.228Z,63.34
2017-08-14T10:14:58.588Z,63.14
2017-08-14T10:16:08.953Z,63.43
2017-08-14T10:17:19.369Z,63.53
2017-08-14T10:18:29.735Z,63.63
2017-08-14T10:19:40.121Z,64.58
2017-08-14T10:20:50.691Z,65.2
2017-08-14T10:22:01.040Z,65.56
2017-08-14T10:23:11.454Z,66.5
2017-08-14T10:24:21.826Z,66.02
2017-08-14T10:25:32.207Z,66.37
2017-08-14T10:26:42.573Z,65.59
2017-08-14T10:27:52.946Z,64.55
2017-08-14T10:29:03.041Z,64.39
2017-08-14T10:30:13.413Z,63.44
2017-08-14T10:31:24.636Z,63.28
2017-08-14T10:32:34.699Z,63.5
2017-08-14T10:33:45.040Z,63.4
2017-08-14T10:34:55.461Z,62.65
2017-08-14T10:36:05.537Z,62.38
2017-08-14T10:37:15.941Z,62.38
2017-08-14T10:38:25.679Z,62.41
2017-08-14T10:39:38.144Z,62.32
2017-08-14T10:40:48.585Z,62.51
2017-08-14T10:41:58.647Z,63.1
2017-08-14T10:43:09.019Z,63.01
2017-08-14T10:44:19.397Z,62.64
2017-08-14T10:45:29.457Z,63.04
2017-08-14T10:46:38.934Z,63.04
2017-08-14T10:47:49.295Z,63.13
2017-08-14T10:48:59.662Z,63.33
2017-08-14T10:50:12.280Z,63.69
2017-08-14T10:51:22.334Z,63.59
2017-08-14T10:52:32.743Z,63.4
2017-08-14T10:53:43.121Z,63.69
2017-08-14T10:54:53.156Z,63.49
2017-08-14T10:56:03.501Z,63.79
2017-08-14T10:57:13.553Z,63.4
2017-08-14T10:58:23.652Z,63.59
2017-08-14T10:59:34.037Z,63.46
2017-08-14T11:00:44.393Z,63.66
2017-08-14T11:01:54.765Z,63.76
2017-08-14T11:03:05.143Z,64.05
2017-08-14T11:04:15.553Z,64.15
2017-08-14T11:05:25.614Z,63.46
2017-08-14T11:06:35.978Z,64.15
2017-08-14T11:07:46.320Z,64.25
2017-08-14T11:08:56.660Z,64.15
2017-08-14T11:10:07.060Z,63.66
2017-08-14T11:11:17.112Z,63.46
2017-08-14T11:12:27.490Z,63.66
2017-08-14T11:13:37.922Z,63.56
2017-08-14T11:14:48.389Z,63.27
2017-08-14T11:15:58.821Z,63.66
2017-08-14T11:17:11.097Z,63.66
2017-08-14T11:18:21.477Z,63.3
2017-08-14T11:19:31.855Z,63.13
2017-08-14T11:20:42.233Z,63.33
2017-08-14T11:21:53.879Z,63.53
2017-08-14T11:23:04.105Z,63.46
2017-08-14T11:24:14.494Z,63.62
2017-08-14T11:25:24.854Z,63.36
2017-08-14T11:26:35.199Z,63.36
2017-08-14T11:27:45.625Z,63.36
2017-08-14T11:28:55.666Z,63.46
2017-08-14T11:30:06.031Z,63.36
2017-08-14T11:31:16.393Z,63.46
2017-08-14T11:32:26.130Z,63.26
2017-08-14T11:33:36.549Z,63.56
2017-08-14T11:34:47.850Z,63.26
2017-08-14T11:35:57.924Z,63.26
2017-08-14T11:37:08.330Z,63.36
2017-08-14T11:38:18.706Z,62.77
2017-08-14T11:39:29.127Z,63
2017-08-14T11:40:39.522Z,62.81
2017-08-14T11:41:51.780Z,62.9
2017-08-14T11:43:02.139Z,62.9
2017-08-14T11:44:14.168Z,62.7
2017-08-14T11:45:24.590Z,63
2017-08-14T11:46:35.007Z,63.39
2017-08-14T11:47:45.399Z,63.49
2017-08-14T11:48:55.442Z,63.59
2017-08-14T11:50:05.528Z,63.39
2017-08-14T11:51:15.959Z,63.2
2017-08-14T11:52:26.312Z,63.39
2017-08-14T11:53:36.672Z,63
2017-08-14T11:54:47.041Z,63.29
2017-08-14T11:55:57.414Z,63.29
2017-08-14T11:57:07.826Z,63.2
2017-08-14T11:58:19.350Z,63.13
2017-08-14T11:59:29.420Z,63.78
2017-08-14T12:00:39.467Z,64.93
2017-08-14T12:01:50.880Z,65.58
2017-08-14T12:03:01.325Z,66.01
2017-08-14T12:04:11.930Z,66.34
2017-08-14T12:05:22.295Z,66.14
2017-08-14T12:06:32.663Z,66.6
2017-08-14T12:07:43.090Z,66.76
2017-08-14T12:08:53.522Z,66.96
2017-08-14T12:10:03.887Z,66.73
2017-08-14T12:11:14.256Z,66.73
2017-08-14T12:12:24.611Z,66.53
2017-08-14T12:13:34.999Z,66.24
2017-08-14T12:14:45.116Z,65.46
2017-08-14T12:15:55.495Z,65.75
2017-08-14T12:17:05.575Z,65.66
2017-08-14T12:18:15.967Z,65.88
2017-08-14T12:19:26.332Z,65.46
2017-08-14T12:20:39.090Z,65.59
2017-08-14T12:21:49.171Z,64.42
2017-08-14T12:22:59.558Z,64.67
2017-08-14T12:24:09.614Z,65.23
2017-08-14T12:25:19.980Z,65.23
2017-08-14T12:26:30.110Z,65.39
2017-08-14T12:27:40.501Z,65.39
2017-08-14T12:28:50.541Z,65.3
2017-08-14T12:30:02.924Z,65.2
2017-08-14T12:31:15.248Z,64.51
2017-08-14T12:32:25.398Z,63.4
2017-08-14T12:33:35.453Z,62.58
2017-08-14T12:34:45.495Z,61.93
2017-08-14T12:35:55.859Z,61.57
2017-08-14T12:37:06.246Z,61.79
2017-08-14T12:38:16.669Z,62.12
2017-08-14T12:39:27.025Z,63.65
2017-08-14T12:40:37.401Z,62.25
2017-08-14T12:41:47.805Z,62.31
2017-08-14T12:42:58.236Z,62.02
2017-08-14T12:44:08.294Z,62.05
2017-08-14T12:45:18.648Z,62.37
2017-08-14T12:46:29.012Z,62.47
2017-08-14T12:47:39.058Z,62.11
2017-08-14T12:48:49.494Z,62.11
2017-08-14T12:49:59.879Z,61.71
2017-08-14T12:51:09.933Z,62.01
2017-08-14T12:52:21.615Z,62.21
2017-08-14T12:53:32.145Z,61.25
2017-08-14T12:54:42.569Z,61.74
2017-08-14T12:55:52.918Z,61.68
2017-08-14T12:57:03.272Z,61.68
2017-08-14T12:58:12.732Z,61.68
2017-08-14T12:59:23.089Z,61.51
2017-08-14T13:00:33.204Z,61.68
2017-08-14T13:01:43.259Z,61.61
2017-08-14T13:02:53.322Z,61.51
2017-08-14T13:04:03.685Z,61.8
2017-08-14T13:05:14.041Z,61.61
2017-08-14T13:06:24.152Z,62.4
2017-08-14T13:07:34.531Z,61.77
2017-08-14T13:08:44.601Z,62.27
2017-08-14T13:09:54.965Z,62.82
2017-08-14T13:11:05.011Z,63.71
2017-08-14T13:12:15.438Z,64.83
2017-08-14T13:13:25.801Z,64.86
2017-08-14T13:14:36.177Z,65.62
2017-08-14T13:15:46.217Z,66.08
2017-08-14T13:16:56.590Z,65.94
2017-08-14T13:18:06.648Z,65.84
2017-08-14T13:19:17.039Z,65.65
2017-08-14T13:20:26.814Z,64.77
2017-08-14T13:21:36.877Z,64.41
2017-08-14T13:22:47.269Z,64.51
2017-08-14T13:23:57.330Z,63.92
2017-08-14T13:25:07.694Z,63.92
2017-08-14T13:26:17.798Z,64.21
2017-08-14T13:27:30.674Z,65.09
2017-08-14T13:28:41.047Z,65.62
2017-08-14T13:29:53.023Z,65.09
2017-08-14T13:31:03.384Z,64.84
2017-08-14T13:32:13.804Z,65.03
2017-08-14T13:33:24.163Z,64.34
2017-08-14T13:34:34.525Z,63.79
2017-08-14T13:35:44.244Z,63.62
2017-08-14T13:36:54.616Z,63.23
2017-08-14T13:38:05.038Z,63.56
2017-08-14T13:39:15.415Z,62.87
2017-08-14T13:40:25.779Z,62.77
2017-08-14T13:41:36.907Z,62.9
2017-08-14T13:42:47.270Z,63.29
2017-08-14T13:43:59.302Z,63.42
2017-08-14T13:45:09.666Z,62.54
2017-08-14T13:46:19.753Z,62.34
2017-08-14T13:47:29.806Z,62.76
2017-08-14T13:48:48.908Z,62.76
2017-08-14T13:49:59.359Z,62.37
2017-08-14T13:51:09.712Z,63.26
2017-08-14T13:52:19.772Z,63.06
2017-08-14T13:53:30.163Z,63.35
2017-08-14T13:54:40.581Z,63.19
2017-08-14T13:55:50.652Z,62.4
2017-08-14T13:57:01.058Z,63.39
2017-08-14T13:58:13.417Z,63.48
2017-08-14T13:59:23.472Z,62.9
2017-08-14T14:00:33.902Z,63.32
2017-08-14T14:01:44.297Z,63.19
2017-08-14T14:02:54.665Z,63.12
2017-08-14T14:04:04.756Z,63.09
2017-08-14T14:05:15.121Z,62.9
2017-08-14T14:06:25.560Z,62.79
2017-08-14T14:07:35.935Z,63.12
2017-08-14T14:08:46.326Z,62.93
2017-08-14T14:09:56.688Z,63.09
2017-08-14T14:11:07.070Z,63.32
2017-08-14T14:12:17.500Z,62.93
2017-08-14T14:13:29.829Z,63.42
2017-08-14T14:14:40.202Z,63.19
2017-08-14T14:15:50.567Z,63.39
2017-08-14T14:17:00.627Z,63.48
2017-08-14T14:18:10.724Z,63.39
2017-08-14T14:19:21.106Z,63.58
2017-08-14T14:20:31.456Z,63.48
2017-08-14T14:21:41.520Z,63.95
2017-08-14T14:22:51.891Z,63.95
2017-08-14T14:24:02.341Z,63.88
2017-08-14T14:25:12.707Z,63.84
2017-08-14T14:26:23.072Z,63.65
2017-08-14T14:27:33.429Z,63.84
2017-08-14T14:28:43.807Z,63.35
2017-08-14T14:29:54.213Z,63.75
2017-08-14T14:31:04.597Z,63.84
2017-08-14T14:32:14.978Z,63.75
2017-08-14T14:33:25.023Z,63.75
2017-08-14T14:34:35.381Z,63.84
2017-08-14T14:35:46.036Z,63.65
2017-08-14T14:36:56.404Z,63.84
2017-08-14T14:38:06.438Z,63.45
2017-08-14T14:39:16.805Z,63.95
2017-08-14T14:40:26.854Z,63.84
2017-08-14T14:41:37.272Z,63.84
2017-08-14T14:42:47.325Z,63.84
2017-08-14T14:44:02.425Z,63.84
2017-08-14T14:45:12.498Z,63.65
2017-08-14T14:46:22.852Z,63.75
2017-08-14T14:47:33.282Z,63.65
2017-08-14T14:48:43.678Z,63.95
2017-08-14T14:49:54.776Z,63.91
2017-08-14T14:51:05.150Z,64.31
2017-08-14T14:52:15.191Z,63.62
2017-08-14T14:53:25.612Z,63.71
2017-08-14T14:54:35.662Z,63.52
2017-08-14T14:55:45.393Z,63.45
2017-08-14T14:56:55.466Z,63.55
2017-08-14T14:58:05.870Z,63.84
2017-08-14T14:59:16.293Z,63.65
2017-08-14T15:00:26.658Z,63.84
2017-08-14T15:01:37.023Z,63.65
2017-08-14T15:02:47.405Z,64.43
2017-08-14T15:03:57.777Z,64.21
2017-08-14T15:05:08.237Z,64.11
2017-08-14T15:06:18.600Z,64.01
2017-08-14T15:07:28.965Z,64.11
2017-08-14T15:08:39.021Z,64.11
2017-08-14T15:09:49.384Z,64.7
2017-08-14T15:10:59.481Z,64.6
2017-08-14T15:12:09.221Z,64.47
2017-08-14T15:13:19.607Z,64.57
2017-08-14T15:14:29.982Z,64.47
2017-08-14T15:15:40.334Z,64.73
2017-08-14T15:16:50.754Z,65.42
2017-08-14T15:18:01.118Z,65
2017-08-14T15:19:11.166Z,64.9
2017-08-14T15:20:21.521Z,65.19
2017-08-14T15:21:31.897Z,65.75
2017-08-14T15:22:43.026Z,65.45
2017-08-14T15:23:53.376Z,65.03
2017-08-14T15:25:03.428Z,64.73
2017-08-14T15:26:13.486Z,64.87
2017-08-14T15:27:23.854Z,64.67
2017-08-14T15:28:34.270Z,64.87
2017-08-14T15:29:44.329Z,64.67
2017-08-14T15:30:54.379Z,64.58
2017-08-14T15:32:04.428Z,64.67
2017-08-14T15:33:14.476Z,64.67
2017-08-14T15:34:24.637Z,64.67
2017-08-14T15:35:34.675Z,64.54
2017-08-14T15:36:44.722Z,64.64
2017-08-14T15:37:54.784Z,64.64
2017-08-14T15:39:05.172Z,64.84
2017-08-14T15:40:15.294Z,64.64
2017-08-14T15:41:25.644Z,64.44
2017-08-14T15:42:36.623Z,64.73